Time;durP1;ratioP1;P1;durP2;ratioP2;P2;SDS_P1;SDS_P2;PMS_P1;PMS_P2;Temp;Humidity;BMP_temperature;BMP_pressure;BME280_temperature;BME280_humidity;BME280_pressure;Samples;Min_cycle;Max_cycle;Signal;HPM_P1;HPM_P2
2021/03/23 00:00:40;;;;;;;3.45;3.05;;;;;;;3.37;65.17;94523.38;5090694;28;20199;-66
2021/03/23 00:03:31;;;;;;;3.42;2.72;;;;;;;3.50;64.30;94527.56;5102232;28;20309;-66
2021/03/23 00:05:59;;;;;;;3.85;2.70;;;;;;;3.66;63.89;94529.53;5090548;28;20190;-68
2021/03/23 00:08:50;;;;;;;3.35;2.78;;;;;;;3.65;63.32;94531.31;5102600;28;20595;-68
2021/03/23 00:11:20;;;;;;;5.22;3.30;;;;;;;3.73;63.44;94527.63;5092108;28;20282;-68
2021/03/23 00:13:47;;;;;;;4.50;3.38;;;;;;;3.69;63.42;94526.47;5090735;28;20673;-62
2021/03/23 00:16:16;;;;;;;4.90;3.70;;;;;;;3.72;62.93;94521.66;5090194;28;20202;-65
2021/03/23 00:18:43;;;;;;;5.28;3.58;;;;;;;3.65;63.16;94526.16;5090615;28;20222;-65
2021/03/23 00:21:11;;;;;;;4.45;3.60;;;;;;;3.71;63.99;94532.25;5090282;28;20202;-69
2021/03/23 00:23:38;;;;;;;4.82;3.72;;;;;;;3.61;64.21;94534.59;5090817;28;20304;-63
2021/03/23 00:26:07;;;;;;;6.40;3.67;;;;;;;3.50;64.30;94532.75;5089797;28;20307;-69
2021/03/23 00:28:34;;;;;;;4.40;3.08;;;;;;;3.52;63.70;94535.91;5095986;28;20209;-63
2021/03/23 00:31:01;;;;;;;4.50;3.13;;;;;;;3.32;64.54;94535.38;5090669;28;20290;-68
2021/03/23 00:33:27;;;;;;;3.50;2.80;;;;;;;3.29;64.89;94535.81;5102238;28;20264;-67
2021/03/23 00:36:01;;;;;;;4.32;3.17;;;;;;;3.42;64.19;94546.00;5090140;28;20244;-65
2021/03/23 00:38:30;;;;;;;3.85;3.17;;;;;;;3.24;64.97;94556.41;5102057;28;20230;-67
2021/03/23 00:40:57;;;;;;;3.97;3.10;;;;;;;3.35;64.54;94550.47;5090693;28;20653;-63
2021/03/23 00:43:24;;;;;;;3.85;3.28;;;;;;;3.47;64.06;94553.91;5103212;28;20230;-69
2021/03/23 00:45:50;;;;;;;4.32;3.20;;;;;;;3.39;64.73;94560.19;5090070;28;20199;-67
2021/03/23 00:48:19;;;;;;;4.88;3.90;;;;;;;3.22;64.72;94558.41;5102174;28;20206;-68
2021/03/23 00:50:46;;;;;;;4.85;3.97;;;;;;;3.38;64.55;94560.38;5090250;28;20672;-66
2021/03/23 00:53:12;;;;;;;4.63;4.05;;;;;;;3.41;65.09;94559.97;5102486;28;20203;-67
2021/03/23 00:55:39;;;;;;;4.93;4.18;;;;;;;3.53;65.25;94565.97;5091345;28;20663;-68
2021/03/23 00:58:06;;;;;;;6.32;5.00;;;;;;;3.60;65.09;94564.88;5102029;28;20195;-69
2021/03/23 01:00:33;;;;;;;6.30;5.32;;;;;;;3.68;64.81;94567.16;5090550;28;20194;-70
2021/03/23 01:03:00;;;;;;;7.10;5.85;;;;;;;3.45;64.83;94561.13;5101699;28;20202;-68
2021/03/23 01:05:30;;;;;;;6.93;6.15;;;;;;;3.48;64.59;94566.66;5090209;28;20214;-66
2021/03/23 01:07:57;;;;;;;7.50;6.50;;;;;;;3.29;65.14;94566.88;5101532;28;20313;-69
2021/03/23 01:10:27;;;;;;;7.55;6.70;;;;;;;3.33;64.92;94552.50;5090028;28;20215;-65
2021/03/23 01:12:54;;;;;;;8.90;6.88;;;;;;;3.34;65.11;94554.09;5101184;28;20190;-66
2021/03/23 01:15:24;;;;;;;7.97;6.97;;;;;;;3.42;64.69;94562.34;5089875;28;20264;-69
2021/03/23 01:17:51;;;;;;;7.82;6.78;;;;;;;2.88;66.05;94560.59;5100955;28;20202;-63
2021/03/23 01:20:21;;;;;;;8.20;6.95;;;;;;;2.61;67.09;94567.03;5090440;28;20234;-68
2021/03/23 01:22:47;;;;;;;12.15;8.88;;;;;;;2.85;66.66;94565.41;5100178;28;20198;-68
2021/03/23 01:25:14;;;;;;;9.02;6.95;;;;;;;2.94;66.56;94564.91;5095011;28;20222;-68
2021/03/23 01:27:41;;;;;;;8.95;6.90;;;;;;;2.74;66.71;94559.16;5103500;28;20194;-64
2021/03/23 01:30:10;;;;;;;8.93;7.03;;;;;;;3.12;65.75;94560.75;5096613;28;20580;-68
2021/03/23 01:32:37;;;;;;;9.13;7.70;;;;;;;3.12;65.88;94550.38;5102781;28;20201;-68
2021/03/23 01:35:05;;;;;;;9.32;7.35;;;;;;;3.16;65.55;94551.53;5096313;28;20199;-65
2021/03/23 01:37:31;;;;;;;9.32;7.72;;;;;;;3.24;66.15;94548.63;5102057;28;20202;-65
2021/03/23 01:39:58;;;;;;;11.48;9.13;;;;;;;3.09;66.05;94552.41;5097769;28;20214;-65
2021/03/23 01:42:44;;;;;;;18.45;12.20;;;;;;;2.92;67.09;94559.16;5101703;28;20213;-64
2021/03/23 01:45:18;;;;;;;22.13;14.70;;;;;;;3.06;66.76;94552.03;5097401;28;20225;-69
2021/03/23 01:47:44;;;;;;;23.77;16.60;;;;;;;3.01;67.26;94565.63;5105693;28;20654;-64
2021/03/23 01:50:12;;;;;;;27.60;17.85;;;;;;;3.13;66.80;94567.47;5096700;28;20233;-66
2021/03/23 01:52:39;;;;;;;24.08;17.40;;;;;;;3.21;66.69;94568.00;5104391;28;20194;-66
2021/03/23 01:55:09;;;;;;;25.63;17.48;;;;;;;2.94;67.72;94579.63;5095685;28;20187;-66
2021/03/23 01:57:37;;;;;;;25.67;18.45;;;;;;;2.94;67.64;94575.25;5102203;28;20751;-65
2021/03/23 02:00:07;;;;;;;26.45;18.08;;;;;;;2.95;67.54;94576.06;5095635;28;20206;-66
2021/03/23 02:02:36;;;;;;;26.73;17.90;;;;;;;3.01;67.43;94575.97;5100464;28;20202;-67
2021/03/23 02:05:16;;;;;;;26.92;18.30;;;;;;;3.03;67.65;94563.59;5095549;28;20222;-65
2021/03/23 02:07:43;;;;;;;28.33;18.27;;;;;;;2.96;67.42;94568.06;5102720;28;20238;-66
2021/03/23 02:10:10;;;;;;;27.27;17.92;;;;;;;3.07;67.45;94562.19;5094767;28;20202;-69
2021/03/23 02:12:37;;;;;;;28.23;18.35;;;;;;;2.87;67.49;94564.19;5102123;28;20293;-70
2021/03/23 02:15:06;;;;;;;25.58;16.92;;;;;;;2.84;68.20;94554.28;5096166;27;20293;-67
2021/03/23 02:17:35;;;;;;;24.00;16.25;;;;;;;2.90;68.01;94563.75;5101426;28;20307;-64
2021/03/23 02:20:08;;;;;;;23.38;16.42;;;;;;;2.72;68.00;94566.34;5095668;28;20639;-64
2021/03/23 02:22:39;;;;;;;23.15;16.17;;;;;;;2.51;69.01;94566.75;5101467;28;20749;-67
2021/03/23 02:25:12;;;;;;;26.85;17.77;;;;;;;2.64;69.18;94564.06;5095307;28;20235;-66
2021/03/23 02:27:39;;;;;;;19.55;14.73;;;;;;;2.76;68.57;94572.66;5101784;28;20207;-68
2021/03/23 02:30:11;;;;;;;20.15;14.23;;;;;;;2.90;68.05;94568.16;5095313;28;20203;-71
2021/03/23 02:32:37;;;;;;;20.92;13.65;;;;;;;2.51;68.39;94579.69;5101284;28;20290;-68
2021/03/23 02:35:13;;;;;;;19.50;14.73;;;;;;;2.55;68.64;94569.72;5093251;28;20194;-71
2021/03/23 02:37:39;;;;;;;20.83;13.70;;;;;;;2.61;68.30;94579.22;5101511;28;20290;-66
2021/03/23 02:40:06;;;;;;;20.33;14.13;;;;;;;2.75;68.20;94580.66;5095185;28;20199;-65
2021/03/23 02:42:33;;;;;;;20.80;14.38;;;;;;;2.79;67.31;94574.03;5100662;28;20206;-65
2021/03/23 02:44:59;;;;;;;21.10;14.40;;;;;;;2.84;67.52;94577.56;5095642;28;20242;-69
2021/03/23 02:47:26;;;;;;;20.25;14.45;;;;;;;2.82;67.51;94571.03;5100044;28;20292;-70
2021/03/23 02:49:52;;;;;;;20.60;14.68;;;;;;;2.96;67.16;94583.59;5097151;28;20250;-67
2021/03/23 02:52:19;;;;;;;20.23;13.93;;;;;;;3.02;67.32;94582.75;5098562;28;20206;-67
2021/03/23 02:54:48;;;;;;;24.58;15.55;;;;;;;2.89;66.96;94582.88;5097801;28;20199;-67
2021/03/23 02:57:14;;;;;;;27.10;17.35;;;;;;;2.62;67.62;94580.78;5092625;28;20206;-67
2021/03/23 02:59:41;;;;;;;24.83;16.50;;;;;;;2.76;67.38;94577.03;5092143;28;20191;-65
2021/03/23 03:02:08;;;;;;;25.30;17.08;;;;;;;2.95;66.96;94587.22;5092430;28;20271;-64
2021/03/23 03:04:38;;;;;;;26.88;17.60;;;;;;;3.00;66.86;94583.97;5092310;28;20222;-69
2021/03/23 03:07:05;;;;;;;26.60;17.65;;;;;;;2.77;67.68;94578.66;5092705;28;20243;-66
2021/03/23 03:09:32;;;;;;;28.63;18.73;;;;;;;2.57;68.46;94584.03;5091608;28;20198;-64
2021/03/23 03:11:59;;;;;;;31.52;20.08;;;;;;;2.77;68.13;94592.34;5091203;28;20199;-66
2021/03/23 03:14:26;;;;;;;28.10;19.05;;;;;;;2.95;67.55;94600.16;5092300;28;20202;-66
2021/03/23 03:16:52;;;;;;;31.98;21.50;;;;;;;2.78;67.82;94586.19;5092238;28;20202;-65
2021/03/23 03:19:19;;;;;;;34.38;22.15;;;;;;;2.92;67.56;94587.63;5092849;28;20207;-68
2021/03/23 03:21:46;;;;;;;35.00;23.25;;;;;;;2.86;68.11;94598.84;5091901;28;20187;-69
2021/03/23 03:24:12;;;;;;;35.83;22.65;;;;;;;2.66;68.37;94590.50;5090713;28;20222;-69
2021/03/23 03:26:39;;;;;;;36.78;23.08;;;;;;;2.57;68.75;94589.19;5091552;28;20199;-68
2021/03/23 03:29:05;;;;;;;35.92;22.17;;;;;;;2.67;68.89;94599.81;5090942;28;20191;-66
2021/03/23 03:31:32;;;;;;;33.33;21.10;;;;;;;2.67;69.01;94605.00;5091649;28;20229;-65
2021/03/23 03:34:01;;;;;;;31.15;20.27;;;;;;;2.78;68.47;94606.88;5092022;28;20186;-65
2021/03/23 03:36:30;;;;;;;30.98;19.98;;;;;;;2.44;68.95;94615.16;5091559;28;20219;-68
2021/03/23 03:38:57;;;;;;;31.48;20.60;;;;;;;2.69;68.60;94608.16;5092011;28;20210;-67
2021/03/23 03:41:24;;;;;;;34.58;21.90;;;;;;;2.85;68.41;94611.97;5092227;28;20195;-67
2021/03/23 03:43:52;;;;;;;32.80;20.90;;;;;;;2.70;68.17;94603.78;5093888;28;20233;-65
2021/03/23 03:46:19;;;;;;;34.15;21.17;;;;;;;2.38;69.34;94613.41;5091429;28;20277;-62
2021/03/23 03:48:46;;;;;;;36.95;22.90;;;;;;;2.35;69.23;94615.63;5091383;28;20669;-66
2021/03/23 03:51:12;;;;;;;34.63;22.15;;;;;;;2.51;69.04;94610.72;5091798;28;20195;-67
2021/03/23 03:53:39;;;;;;;33.95;22.00;;;;;;;2.59;69.00;94620.78;5091492;28;20199;-68
2021/03/23 03:56:05;;;;;;;36.70;21.65;;;;;;;2.46;69.00;94608.00;5091157;28;20206;-66
2021/03/23 03:58:32;;;;;;;33.50;20.98;;;;;;;2.60;68.68;94606.84;5091982;28;20183;-70
2021/03/23 04:00:59;;;;;;;34.00;21.50;;;;;;;2.80;68.44;94598.91;5091017;28;20240;-69
2021/03/23 04:03:29;;;;;;;32.35;20.05;;;;;;;2.90;67.76;94610.31;5091308;28;20207;-66
2021/03/23 04:05:58;;;;;;;32.97;20.75;;;;;;;2.93;67.89;94612.50;5090990;28;20246;-67
2021/03/23 04:08:32;;;;;;;29.60;19.33;;;;;;;2.59;68.31;94618.19;5091550;28;20562;-64
2021/03/23 04:11:05;;;;;;;29.08;19.60;;;;;;;2.77;68.37;94609.69;5091100;28;20621;-65
2021/03/23 04:13:32;;;;;;;31.40;20.40;;;;;;;2.80;67.75;94604.88;5091737;28;20260;-65
2021/03/23 04:15:59;;;;;;;30.45;20.13;;;;;;;2.94;67.53;94616.66;5090824;28;20189;-70
2021/03/23 04:18:27;;;;;;;32.10;19.58;;;;;;;2.87;67.59;94620.31;5091303;28;20199;-67
2021/03/23 04:20:57;;;;;;;27.30;17.88;;;;;;;2.91;67.56;94621.47;5091179;28;20225;-68
2021/03/23 04:23:31;;;;;;;27.35;19.08;;;;;;;2.92;67.06;94623.84;5090687;28;20219;-69
2021/03/23 04:25:59;;;;;;;27.25;17.90;;;;;;;2.62;67.71;94635.91;5091215;28;20206;-69
2021/03/23 04:28:25;;;;;;;25.13;16.83;;;;;;;2.77;67.56;94635.56;5091325;28;20764;-71
2021/03/23 04:30:52;;;;;;;28.27;17.92;;;;;;;2.80;67.10;94638.50;5090578;28;20195;-66
2021/03/23 04:33:22;;;;;;;25.85;17.98;;;;;;;2.94;66.37;94634.78;5090532;28;20202;-67
2021/03/23 04:35:57;;;;;;;25.33;16.63;;;;;;;2.64;66.73;94631.31;5090343;28;20203;-66
2021/03/23 04:38:27;;;;;;;23.80;16.13;;;;;;;2.72;66.96;94649.13;5090811;28;20273;-64
2021/03/23 04:40:55;;;;;;;21.40;14.90;;;;;;;2.63;66.38;94650.38;5090499;28;20194;-68
2021/03/23 04:43:28;;;;;;;21.23;14.93;;;;;;;2.59;65.86;94659.56;5090416;28;20565;-67
2021/03/23 04:45:55;;;;;;;20.92;14.63;;;;;;;2.78;65.30;94640.50;5090277;28;20195;-68
2021/03/23 04:48:22;;;;;;;21.27;14.07;;;;;;;2.97;64.84;94657.63;5090961;28;20202;-64
2021/03/23 04:50:49;;;;;;;20.77;14.13;;;;;;;2.98;64.74;94666.19;5090277;28;20195;-66
2021/03/23 04:53:22;;;;;;;17.77;12.57;;;;;;;2.71;64.76;94663.06;5100617;28;20194;-63
2021/03/23 04:55:49;;;;;;;22.55;14.13;;;;;;;3.01;64.34;94658.03;5111042;28;20202;-64
2021/03/23 04:58:15;;;;;;;20.25;14.10;;;;;;;3.09;64.44;94661.09;5110278;28;20679;-64
2021/03/23 05:00:41;;;;;;;19.30;13.15;;;;;;;3.07;64.11;94668.28;5105659;28;20270;-64
2021/03/23 05:03:22;;;;;;;19.75;13.40;;;;;;;3.22;64.29;94667.13;5090626;28;20776;-64
2021/03/23 05:05:57;;;;;;;19.33;13.32;;;;;;;3.29;64.70;94665.28;5092877;28;20208;-64
2021/03/23 05:08:24;;;;;;;21.60;14.80;;;;;;;3.30;64.82;94669.47;5090496;28;20190;-64
2021/03/23 05:10:52;;;;;;;20.15;13.52;;;;;;;3.40;64.41;94667.94;5092005;28;20206;-63
2021/03/23 05:13:18;;;;;;;15.77;11.48;;;;;;;3.49;63.53;94676.19;5092155;28;20214;-64
2021/03/23 05:15:45;;;;;;;13.88;9.88;;;;;;;3.13;62.01;94639.97;5091232;28;20582;-65
2021/03/23 05:18:13;;;;;;;15.93;10.15;;;;;;;3.38;62.36;94663.97;5090317;28;20191;-64
2021/03/23 05:20:40;;;;;;;15.20;10.68;;;;;;;3.51;62.68;94669.00;5090759;28;20199;-63
2021/03/23 05:23:07;;;;;;;14.07;10.68;;;;;;;3.62;62.36;94665.69;5090081;28;20189;-65
2021/03/23 05:25:34;;;;;;;16.17;11.43;;;;;;;3.69;61.81;94656.81;5090114;28;20218;-65
2021/03/23 05:28:00;;;;;;;16.13;11.32;;;;;;;3.60;62.29;94667.69;5088432;28;20187;-67
2021/03/23 05:30:28;;;;;;;15.75;10.95;;;;;;;3.82;62.09;94666.22;5086946;28;20206;-67
2021/03/23 05:32:54;;;;;;;13.40;9.95;;;;;;;3.68;60.59;94665.63;5087893;28;20595;-67
2021/03/23 05:35:21;;;;;;;16.13;11.65;;;;;;;3.56;61.36;94666.56;5087411;28;20252;-66
2021/03/23 05:37:48;;;;;;;13.63;10.25;;;;;;;3.43;61.16;94675.25;5088006;28;20183;-63
2021/03/23 05:40:30;;;;;;;19.13;11.82;;;;;;;3.54;60.66;94678.94;5089695;28;20195;-69
2021/03/23 05:43:06;;;;;;;13.80;10.65;;;;;;;3.66;60.88;94680.59;5089957;28;20277;-66
2021/03/23 05:45:36;;;;;;;15.07;10.90;;;;;;;3.60;60.52;94665.09;5089233;28;20707;-64
2021/03/23 05:48:25;;;;;;;15.45;11.40;;;;;;;3.56;61.04;94682.13;5090149;28;20195;-65
2021/03/23 05:51:07;;;;;;;17.50;12.82;;;;;;;3.70;61.67;94678.34;5085660;28;20290;-66
2021/03/23 05:54:21;;;;;;;15.50;10.95;;;;;;;3.62;60.63;94681.22;5089969;28;20245;-67
2021/03/23 05:56:53;;;;;;;18.20;12.57;;;;;;;3.57;60.85;94691.47;5070615;28;20604;-70
2021/03/23 05:59:34;;;;;;;15.60;11.18;;;;;;;3.81;60.11;94698.34;5089849;28;20199;-67
2021/03/23 06:02:24;;;;;;;12.23;8.90;;;;;;;3.44;59.72;94701.97;5089840;28;20288;-67
2021/03/23 06:05:04;;;;;;;12.05;7.80;;;;;;;3.87;59.44;94710.41;5088862;28;20223;-71
2021/03/23 06:07:38;;;;;;;16.25;9.65;;;;;;;3.98;58.84;94713.06;5089671;28;20309;-67
2021/03/23 06:10:19;;;;;;;11.52;8.35;;;;;;;3.41;58.67;94705.00;5091403;28;20305;-65
2021/03/23 06:13:23;;;;;;;15.30;9.27;;;;;;;3.50;59.49;94708.88;5093444;28;20222;-65
2021/03/23 06:15:58;;;;;;;14.18;9.05;;;;;;;3.98;58.75;94707.09;5093344;28;20199;-71
2021/03/23 06:18:34;;;;;;;10.73;7.97;;;;;;;4.08;58.34;94717.75;5093607;28;20264;-66
2021/03/23 06:21:09;;;;;;;13.73;9.23;;;;;;;4.24;58.65;94711.94;5092869;28;20226;-68
2021/03/23 06:23:49;;;;;;;12.07;8.52;;;;;;;4.37;58.09;94714.34;5093059;28;20277;-69
2021/03/23 06:26:38;;;;;;;11.60;9.10;;;;;;;4.45;58.72;94714.03;5092944;28;20195;-68
2021/03/23 06:29:28;;;;;;;12.75;9.57;;;;;;;4.69;58.43;94715.66;5093395;28;20209;-66
2021/03/23 06:31:58;;;;;;;11.98;9.02;;;;;;;4.42;57.37;94693.72;5091435;28;20687;-67
2021/03/23 06:34:31;;;;;;;14.65;10.10;;;;;;;4.41;57.97;94723.28;5092909;28;20199;-68
2021/03/23 06:37:00;;;;;;;12.85;9.60;;;;;;;4.63;57.32;94703.59;5093117;28;20195;-67
2021/03/23 06:39:30;;;;;;;12.85;10.05;;;;;;;4.95;57.22;94728.22;5093311;28;20195;-70
2021/03/23 06:42:02;;;;;;;14.43;9.65;;;;;;;5.06;56.90;94726.66;5093027;28;20322;-65
2021/03/23 06:44:42;;;;;;;15.10;10.32;;;;;;;5.09;56.66;94727.00;5092975;28;20657;-69
2021/03/23 06:47:38;;;;;;;13.70;10.07;;;;;;;5.20;56.73;94727.22;5093037;28;20194;-68
2021/03/23 06:50:26;;;;;;;11.80;9.43;;;;;;;5.27;56.18;94728.72;5092289;28;20191;-66
2021/03/23 06:53:21;;;;;;;13.38;9.45;;;;;;;5.05;56.79;94740.66;5092857;28;20195;-68
2021/03/23 06:55:49;;;;;;;15.32;10.40;;;;;;;5.02;56.86;94734.09;5092581;28;20219;-65
2021/03/23 06:58:42;;;;;;;12.32;9.80;;;;;;;5.04;56.20;94739.06;5093164;28;20195;-64
2021/03/23 07:01:13;;;;;;;14.98;10.38;;;;;;;5.16;56.02;94738.06;5091000;28;20195;-66
2021/03/23 07:03:42;;;;;;;15.55;10.13;;;;;;;5.04;55.88;94747.66;5092328;28;20223;-67
2021/03/23 07:06:19;;;;;;;16.92;11.65;;;;;;;5.11;55.60;94745.72;5092312;28;20577;-67
2021/03/23 07:09:24;;;;;;;20.50;11.35;;;;;;;4.57;55.31;94748.59;5093175;28;20203;-66
2021/03/23 07:11:59;;;;;;;17.48;11.07;;;;;;;5.01;55.29;94749.91;5091612;28;20210;-66
2021/03/23 07:14:33;;;;;;;15.27;10.38;;;;;;;5.04;54.63;94758.03;5092820;28;20193;-70
2021/03/23 07:17:09;;;;;;;14.48;10.63;;;;;;;5.29;54.93;94763.03;5092610;28;20225;-67
2021/03/23 07:19:47;;;;;;;16.30;12.23;;;;;;;5.31;55.78;94755.00;5092197;28;20588;-67
2021/03/23 07:22:23;;;;;;;21.30;12.25;;;;;;;5.55;55.19;94756.56;5091872;28;20231;-68
2021/03/23 07:24:56;;;;;;;32.20;12.90;;;;;;;5.48;55.22;94763.69;5091327;28;21042;-69
2021/03/23 07:27:26;;;;;;;17.40;11.52;;;;;;;5.30;55.71;94758.63;5092308;28;20690;-65
2021/03/23 07:30:13;;;;;;;17.98;13.07;;;;;;;5.31;55.27;94755.78;5091566;28;20211;-64
2021/03/23 07:32:48;;;;;;;19.02;12.73;;;;;;;5.29;54.93;94777.81;5092284;28;20191;-69
2021/03/23 07:35:34;;;;;;;17.30;12.18;;;;;;;5.36;55.41;94783.69;5091378;28;20313;-68
2021/03/23 07:38:22;;;;;;;17.33;12.77;;;;;;;5.51;54.91;94787.41;5090824;28;20291;-65
2021/03/23 07:40:53;;;;;;;15.43;11.52;;;;;;;5.44;54.77;94791.16;5091554;28;20225;-65
2021/03/23 07:43:34;;;;;;;16.65;11.43;;;;;;;5.33;53.76;94791.94;5092020;28;20194;-67
2021/03/23 07:46:10;;;;;;;16.15;10.52;;;;;;;5.21;54.52;94783.34;5091072;28;20223;-66
2021/03/23 07:49:06;;;;;;;16.13;11.30;;;;;;;4.75;55.17;94792.63;5091911;28;20201;-65
2021/03/23 07:51:41;;;;;;;13.88;9.90;;;;;;;4.74;55.75;94785.06;5099106;28;20594;-66
2021/03/23 07:54:32;;;;;;;15.20;9.48;;;;;;;4.83;56.68;94784.53;5108433;28;20205;-69
2021/03/23 07:57:32;;;;;;;13.05;7.72;;;;;;;4.85;56.92;94792.09;5110080;28;20194;-67
2021/03/23 08:00:20;;;;;;;12.07;7.40;;;;;;;5.05;59.08;94788.16;5108652;28;20582;-66
2021/03/23 08:03:18;;;;;;;9.90;6.40;;;;;;;5.42;56.83;94782.81;5108375;28;20615;-68
2021/03/23 08:06:24;;;;;;;12.85;7.70;;;;;;;5.50;54.56;94785.03;5109499;28;20219;-67
2021/03/23 08:09:20;;;;;;;11.75;7.43;;;;;;;5.48;55.01;94792.28;5092890;28;20729;-66
2021/03/23 08:12:04;;;;;;;16.23;10.50;;;;;;;5.38;56.67;94792.06;5055045;28;20355;-69
2021/03/23 08:14:36;;;;;;;12.93;8.45;;;;;;;5.06;55.23;94794.97;5110031;28;20186;-71
2021/03/23 08:17:27;;;;;;;12.75;8.43;;;;;;;4.97;56.08;94796.31;5111196;28;20194;-66
2021/03/23 08:20:03;;;;;;;22.65;14.63;;;;;;;5.35;56.50;94792.50;5111155;28;20198;-69
2021/03/23 08:22:44;;;;;;;13.88;8.70;;;;;;;5.33;54.28;94794.56;5111607;28;20292;-66
2021/03/23 08:25:41;;;;;;;15.52;8.73;;;;;;;5.54;54.18;94791.38;5111051;28;20230;-70
2021/03/23 08:28:11;;;;;;;18.75;9.98;;;;;;;5.50;53.96;94792.84;5111569;28;20906;-65
2021/03/23 08:30:52;;;;;;;15.18;10.18;;;;;;;5.65;54.06;94788.00;5109964;28;20956;-67
2021/03/23 08:34:01;;;;;;;10.45;6.70;;;;;;;5.52;54.17;94796.00;5110727;28;20191;-68
2021/03/23 08:37:01;;;;;;;37.20;27.15;;;;;;;5.41;54.91;94802.00;5081689;28;20202;-68
2021/03/23 08:40:04;;;;;;;43.97;31.98;;;;;;;5.26;55.77;94804.22;5111306;28;20197;-70
2021/03/23 08:42:32;;;;;;;9.63;6.60;;;;;;;5.23;54.10;94800.28;5110995;28;20659;-62
2021/03/23 08:45:03;;;;;;;5.57;4.47;;;;;;;5.11;53.48;94792.47;5110612;28;20224;-65
2021/03/23 08:47:42;;;;;;;9.15;5.65;;;;;;;5.25;53.85;94797.47;5109414;28;20225;-67
2021/03/23 08:50:25;;;;;;;12.45;7.90;;;;;;;5.31;54.04;94791.38;5109192;28;20271;-66
2021/03/23 08:52:55;;;;;;;10.25;6.85;;;;;;;5.18;54.20;94793.16;5109528;28;20189;-67
2021/03/23 08:55:24;;;;;;;8.82;6.22;;;;;;;5.14;54.14;94792.06;5109193;28;20273;-66
2021/03/23 08:58:04;;;;;;;8.35;6.30;;;;;;;5.26;54.33;94780.84;5111064;28;20278;-66
2021/03/23 09:00:37;;;;;;;35.03;24.00;;;;;;;5.52;56.24;94788.22;5110295;28;20224;-68
2021/03/23 09:03:07;;;;;;;134.25;87.18;;;;;;;5.67;55.06;94791.16;5111246;28;20195;-71
2021/03/23 09:05:52;;;;;;;10.45;6.53;;;;;;;5.62;53.33;94796.25;5109109;28;20233;-66
2021/03/23 09:08:22;;;;;;;10.52;7.13;;;;;;;5.90;53.14;94796.34;5110645;28;20202;-65
2021/03/23 09:11:01;;;;;;;9.75;6.50;;;;;;;5.61;52.75;94794.66;5110595;28;20220;-70
2021/03/23 09:13:34;;;;;;;11.18;7.75;;;;;;;5.78;52.74;94800.75;5110885;28;21003;-66
2021/03/23 09:16:16;;;;;;;12.23;8.10;;;;;;;5.64;52.10;94782.00;5110073;28;20198;-67
2021/03/23 09:19:02;;;;;;;12.05;8.25;;;;;;;5.62;52.03;94796.25;5110394;28;20243;-64
2021/03/23 09:21:56;;;;;;;11.20;7.32;;;;;;;5.43;52.40;94799.97;5110110;28;20587;-67
2021/03/23 09:24:37;;;;;;;12.00;7.38;;;;;;;5.48;52.41;94792.28;5110629;28;20252;-64
2021/03/23 09:27:13;;;;;;;12.45;8.50;;;;;;;5.45;52.38;94792.75;5106755;28;20202;-67
2021/03/23 09:29:48;;;;;;;11.50;7.70;;;;;;;5.54;52.33;94796.56;5108646;28;20186;-69
2021/03/23 09:32:28;;;;;;;9.95;7.25;;;;;;;5.24;51.74;94782.91;5109840;28;20205;-66
2021/03/23 09:35:05;;;;;;;11.95;7.50;;;;;;;5.43;52.16;94795.56;5110080;28;20218;-64
2021/03/23 09:37:55;;;;;;;11.65;7.72;;;;;;;5.60;52.24;94793.09;5110674;28;20190;-65
2021/03/23 09:40:22;;;;;;;9.00;6.13;;;;;;;5.82;51.74;94788.88;5099543;28;20577;-66
2021/03/23 09:42:52;;;;;;;8.90;6.55;;;;;;;6.15;50.50;94783.84;5091151;28;20208;-69
2021/03/23 09:45:23;;;;;;;13.00;8.57;;;;;;;6.79;49.69;94786.09;5092450;28;20223;-66
2021/03/23 09:48:10;;;;;;;13.52;9.55;;;;;;;7.60;49.06;94782.16;5112799;28;20682;-67
2021/03/23 09:50:56;;;;;;;12.52;7.13;;;;;;;7.54;46.54;94789.13;5111346;28;20297;-67
2021/03/23 09:53:36;;;;;;;10.13;7.45;;;;;;;7.30;46.81;94786.94;5111678;28;20194;-66
2021/03/23 09:56:03;;;;;;;13.13;9.00;;;;;;;7.13;47.68;94792.91;5110900;28;20194;-66
2021/03/23 09:58:29;;;;;;;21.17;8.65;;;;;;;6.98;49.77;94797.91;5111902;28;20194;-66
2021/03/23 10:01:17;;;;;;;12.95;9.07;;;;;;;7.16;48.57;94797.69;5111243;28;20191;-65
2021/03/23 10:03:45;;;;;;;9.38;6.90;;;;;;;6.81;47.98;94791.88;5114307;28;20217;-66
2021/03/23 10:06:26;;;;;;;10.27;7.45;;;;;;;6.79;48.38;94796.53;5113319;28;20225;-65
2021/03/23 10:08:58;;;;;;;12.18;8.00;;;;;;;6.62;48.36;94800.13;5114364;28;20201;-67
2021/03/23 10:11:27;;;;;;;9.98;7.30;;;;;;;6.41;48.77;94798.94;5113464;28;20247;-68
2021/03/23 10:13:58;;;;;;;22.55;13.82;;;;;;;6.13;50.09;94797.09;5113951;28;20190;-67
2021/03/23 10:16:28;;;;;;;12.10;7.75;;;;;;;6.23;49.29;94795.72;5112234;28;20202;-67
2021/03/23 10:19:04;;;;;;;41.88;24.60;;;;;;;6.28;50.70;94801.81;5115325;28;20190;-64
2021/03/23 10:21:34;;;;;;;13.35;8.80;;;;;;;6.27;49.65;94797.63;5114622;28;20200;-67
2021/03/23 10:24:15;;;;;;;12.93;8.25;;;;;;;6.34;49.36;94798.28;5112708;28;20204;-66
2021/03/23 10:26:46;;;;;;;12.23;8.05;;;;;;;6.25;49.43;94797.06;5113252;28;20281;-66
2021/03/23 10:29:33;;;;;;;11.48;7.80;;;;;;;5.98;49.50;94794.22;5114660;27;20190;-67
2021/03/23 10:32:17;;;;;;;14.63;9.10;;;;;;;5.89;50.25;94794.78;5113684;28;20199;-65
2021/03/23 10:35:13;;;;;;;10.70;7.65;;;;;;;5.66;50.22;94805.16;5112978;28;20201;-66
2021/03/23 10:37:40;;;;;;;11.60;8.27;;;;;;;5.70;50.88;94807.09;5113657;28;20221;-67
2021/03/23 10:40:35;;;;;;;10.98;7.35;;;;;;;5.74;51.29;94817.81;5113276;28;20272;-66
2021/03/23 10:43:02;;;;;;;11.27;7.70;;;;;;;5.63;51.18;94803.00;5113450;28;20214;-66
2021/03/23 10:45:42;;;;;;;8.05;5.60;;;;;;;5.67;51.42;94809.34;5111200;28;20715;-66
2021/03/23 10:48:25;;;;;;;10.73;7.32;;;;;;;5.67;51.20;94817.16;5113359;28;20949;-67
2021/03/23 10:51:16;;;;;;;12.00;8.25;;;;;;;5.70;52.24;94816.69;5113079;28;20190;-66
2021/03/23 10:54:04;;;;;;;12.32;7.00;;;;;;;5.86;51.53;94816.03;5113285;28;20573;-68
2021/03/23 10:56:39;;;;;;;10.82;6.95;;;;;;;5.74;52.27;94815.22;5112191;28;20613;-66
2021/03/23 10:59:11;;;;;;;9.27;6.72;;;;;;;5.67;51.22;94822.34;5113495;28;20220;-67
2021/03/23 11:02:13;;;;;;;8.82;6.22;;;;;;;5.88;50.16;94814.78;5111534;28;20198;-67
2021/03/23 11:05:10;;;;;;;11.52;7.85;;;;;;;5.61;51.12;94812.84;5111917;28;20218;-67
2021/03/23 11:07:54;;;;;;;10.20;7.63;;;;;;;5.68;51.66;94814.31;5091859;28;20399;-67
2021/03/23 11:10:23;;;;;;;9.52;7.03;;;;;;;5.61;51.34;94824.03;5092068;28;20574;-65
2021/03/23 11:12:49;;;;;;;9.13;7.03;;;;;;;5.48;50.92;94819.06;5094558;28;20657;-66
2021/03/23 11:15:16;;;;;;;8.05;6.60;;;;;;;5.47;51.43;94820.09;5103918;28;20289;-65
2021/03/23 11:17:50;;;;;;;20.98;13.98;;;;;;;5.55;52.04;94818.94;5107743;28;20194;-68
2021/03/23 11:20:26;;;;;;;29.48;20.23;;;;;;;5.48;52.52;94818.25;5113014;28;20202;-67
2021/03/23 11:22:56;;;;;;;13.63;10.15;;;;;;;5.70;52.09;94816.69;5096641;28;20680;-66
2021/03/23 11:25:26;;;;;;;11.68;8.00;;;;;;;5.93;51.66;94811.50;5092507;28;20284;-67
2021/03/23 11:27:53;;;;;;;11.00;7.25;;;;;;;6.40;50.10;94807.78;5096626;28;20267;-65
2021/03/23 11:30:21;;;;;;;15.05;9.48;;;;;;;6.51;49.32;94801.75;5092568;28;20298;-67
2021/03/23 11:32:48;;;;;;;12.93;9.23;;;;;;;7.10;50.17;94806.44;5101197;28;20689;-66
2021/03/23 11:35:18;;;;;;;15.13;9.65;;;;;;;7.57;49.69;94800.91;5094693;28;20649;-65
2021/03/23 11:37:45;;;;;;;15.80;10.88;;;;;;;7.56;46.23;94799.31;5092205;28;20272;-65
2021/03/23 11:40:12;;;;;;;15.60;10.60;;;;;;;7.92;46.48;94804.78;5104397;28;20653;-68
2021/03/23 11:42:42;;;;;;;18.05;10.95;;;;;;;7.96;46.14;94789.44;5096186;28;20665;-65
2021/03/23 11:45:21;;;;;;;13.13;8.88;;;;;;;8.27;44.53;94788.81;5091158;28;20219;-65
2021/03/23 11:48:03;;;;;;;10.32;7.32;;;;;;;8.19;42.66;94787.41;5112596;28;20206;-68
2021/03/23 11:50:33;;;;;;;34.97;25.77;;;;;;;8.33;42.70;94790.47;5104106;28;20198;-68
2021/03/23 11:53:00;;;;;;;39.38;26.63;;;;;;;8.07;44.31;94789.34;5101613;28;20926;-65
2021/03/23 11:55:36;;;;;;;9.40;7.88;;;;;;;8.44;41.98;94797.38;5100528;28;20195;-67
2021/03/23 11:58:04;;;;;;;12.45;7.82;;;;;;;8.18;42.74;94787.66;5092127;28;20217;-67
2021/03/23 12:00:32;;;;;;;10.48;7.93;;;;;;;8.61;42.17;94792.88;5097544;28;20257;-66
2021/03/23 12:03:00;;;;;;;11.60;8.05;;;;;;;8.13;42.79;94787.59;5091078;28;20214;-66